METAR AND TAF INFORMATION
METAR FOR SKMZ
ADDS - METARS form results

(1707 UTC 11 July 2020)
Data provider http://aviationweather.gov/metar/data/
 
METAR text: SKMZ 111700Z 31007KT 7000 VCFG SCT007 BKN012 18/16 A3035
Conditions at: SKMZ (MANIZALES LNUBIA, CO) observed 1700 UTC 11 July 2020
Temperature: 18.0°C (64°F)
Dewpoint: 16.0°C (61°F) [RH = 88%]
Pressure (altimeter): 30.35 inches Hg (1027.9 mb)
Winds: from the NW (310 degrees) at 8 MPH (7 knots; 3.6 m/s)
Visibility: 4 miles ( 7 km)
Ceiling: 1200 feet AGL
Clouds: scattered clouds at 700 feet AGL
broken clouds at 1200 feet AGL
Weather: VCFG  (fog in vicinity)

 AIRPORT MAP

 RUNWAY INFORMATION
Runway 09 Runway length 0 ft Runway width 0 ft
Runway elevation 6791 ft Runway displaced threshold 0 ft Runway heading 0
Runway 27 Runway length 0 ft Runway width 0 ft
Runway elevation 6974 ft Runway displaced threshold 0 ft Runway heading 0
Runway 10 Runway length 4835 ft Runway width 65 ft
Runway elevation 0 ft Runway displaced threshold 0 ft Runway heading 95
Runway 28 Runway length 4835 ft Runway width 65 ft
Runway elevation 0 ft Runway displaced threshold 265 ft Runway heading 275

 AIRPORT FREQUENCIES
Type APP Name MEDELLIN A Frequency 121.1 MHZ
Type RDO Name MANIZALES Frequency 348.8 MHZ
Type TWR Name TWR Frequency 118.2 MHZ

 AIRPORT NEAR NAVIGATION AIDS
Type NDB Name Manizales Frequency 337 KHZ